Time;durP1;ratioP1;P1;durP2;ratioP2;P2;SDS_P1;SDS_P2;PMS_P1;PMS_P2;Temp;Humidity;BMP_temperature;BMP_pressure;BME280_temperature;BME280_humidity;BME280_pressure;Samples;Min_cycle;Max_cycle;Signal;HPM_P1;HPM_P2
2022/10/04 00:01:59;;;;;;;7.63;5.20;;;9.60;99.90;;;;;;937626;150;27336;-80
2022/10/04 00:04:28;;;;;;;6.50;5.40;;;9.60;99.90;;;;;;937291;150;27424;-79
2022/10/04 00:06:54;;;;;;;5.77;4.77;;;9.60;99.90;;;;;;936103;150;27360;-78
2022/10/04 00:09:24;;;;;;;36.80;7.23;;;9.60;99.90;;;;;;937438;152;27360;-78
2022/10/04 00:11:51;;;;;;;22.70;6.10;;;9.60;99.90;;;;;;937650;152;27350;-79
2022/10/04 00:14:35;;;;;;;23.17;6.50;;;9.60;99.90;;;;;;937100;150;27385;-78
2022/10/04 00:17:02;;;;;;;23.00;6.00;;;9.60;99.90;;;;;;937913;152;27724;-78
2022/10/04 00:19:41;;;;;;;48.80;7.80;;;9.60;99.90;;;;;;934995;152;27396;-78
2022/10/04 00:22:09;;;;;;;35.30;5.93;;;9.60;99.90;;;;;;937245;150;27360;-79
2022/10/04 00:24:33;;;;;;;31.10;5.70;;;9.70;99.90;;;;;;938115;149;27453;-78
2022/10/04 00:27:21;;;;;;;39.40;6.83;;;9.70;99.90;;;;;;937769;149;27850;-78
2022/10/04 00:30:02;;;;;;;27.83;6.20;;;9.70;99.90;;;;;;937344;150;27395;-78
2022/10/04 00:32:41;;;;;;;30.73;6.50;;;9.70;99.90;;;;;;936748;150;27370;-78
2022/10/04 00:35:25;;;;;;;19.97;5.17;;;9.70;99.90;;;;;;937611;149;27288;-78
2022/10/04 00:38:01;;;;;;;40.07;6.90;;;9.70;99.90;;;;;;937689;152;27375;-79
2022/10/04 00:40:27;;;;;;;38.77;6.63;;;9.70;99.90;;;;;;937121;151;27286;-79
2022/10/04 00:43:09;;;;;;;17.30;5.40;;;9.70;99.90;;;;;;930958;149;27382;-78
2022/10/04 00:45:36;;;;;;;45.07;7.03;;;9.70;99.90;;;;;;928891;151;27383;-78
2022/10/04 00:48:11;;;;;;;20.47;6.23;;;9.70;99.90;;;;;;929023;153;27365;-79
2022/10/04 00:50:38;;;;;;;86.60;11.40;;;9.70;99.90;;;;;;929462;151;27353;-79
2022/10/04 00:53:14;;;;;;;57.57;7.73;;;9.70;99.90;;;;;;928881;151;27348;-78
2022/10/04 00:55:40;;;;;;;54.50;7.03;;;9.70;99.90;;;;;;929127;151;27334;-79
2022/10/04 00:58:07;;;;;;;29.57;5.47;;;9.70;99.90;;;;;;928044;153;27353;-79
2022/10/04 01:00:34;;;;;;;16.50;4.80;;;9.70;99.90;;;;;;927964;151;27493;-78
2022/10/04 01:03:15;;;;;;;12.13;5.20;;;9.70;99.90;;;;;;928911;153;27371;-78
2022/10/04 01:05:42;;;;;;;8.37;4.70;;;9.70;99.90;;;;;;928821;151;27344;-79
2022/10/04 01:08:08;;;;;;;29.73;6.73;;;9.70;99.90;;;;;;929121;153;27352;-78
2022/10/04 01:10:49;;;;;;;17.70;5.73;;;9.70;99.90;;;;;;929272;151;27403;-78
2022/10/04 01:13:16;;;;;;;11.80;4.83;;;9.70;99.90;;;;;;928943;153;27375;-78
2022/10/04 01:16:01;;;;;;;27.17;6.60;;;9.80;99.90;;;;;;929017;151;27367;-78
2022/10/04 01:18:28;;;;;;;16.67;5.17;;;9.80;99.90;;;;;;928633;151;27319;-78
2022/10/04 01:21:06;;;;;;;30.90;6.83;;;9.80;99.90;;;;;;929761;151;27315;-78
2022/10/04 01:23:42;;;;;;;16.80;5.27;;;9.80;99.90;;;;;;926994;153;27242;-78
2022/10/04 01:26:08;;;;;;;22.53;6.23;;;9.80;99.90;;;;;;929286;151;27438;-78
2022/10/04 01:28:35;;;;;;;12.13;5.83;;;9.90;99.90;;;;;;924859;153;27826;-78
2022/10/04 01:31:01;;;;;;;20.63;6.20;;;9.90;99.90;;;;;;929499;151;27448;-78
2022/10/04 01:33:29;;;;;;;16.73;5.90;;;9.90;99.90;;;;;;929566;151;27292;-78
2022/10/04 01:35:55;;;;;;;15.20;5.70;;;9.90;99.90;;;;;;929010;151;27287;-79
2022/10/04 01:38:21;;;;;;;18.10;5.30;;;9.90;99.90;;;;;;929194;151;27685;-78
2022/10/04 01:40:48;;;;;;;14.57;4.67;;;9.90;99.90;;;;;;928971;152;27373;-78
2022/10/04 01:43:14;;;;;;;18.13;5.53;;;9.90;99.90;;;;;;928288;151;27527;-78
2022/10/04 01:45:47;;;;;;;18.33;5.33;;;9.90;99.90;;;;;;929007;151;27859;-78
2022/10/04 01:48:23;;;;;;;17.43;4.73;;;9.90;99.90;;;;;;928576;151;27367;-78
2022/10/04 01:51:03;;;;;;;13.43;4.93;;;9.90;99.90;;;;;;929202;151;27271;-78
2022/10/04 01:53:30;;;;;;;12.77;4.90;;;10.00;99.90;;;;;;928770;151;27370;-78
2022/10/04 01:56:03;;;;;;;8.73;3.50;;;10.00;99.90;;;;;;928906;153;28131;-78
2022/10/04 01:58:29;;;;;;;17.03;4.23;;;10.00;99.90;;;;;;929279;151;27446;-78
2022/10/04 02:00:59;;;;;;;21.63;5.20;;;10.00;99.90;;;;;;929334;151;27425;-78
2022/10/04 02:03:31;;;;;;;20.03;4.53;;;10.00;99.90;;;;;;928690;151;27405;-78
2022/10/04 02:05:58;;;;;;;23.03;5.40;;;10.00;99.90;;;;;;927894;153;27379;-78
2022/10/04 02:08:27;;;;;;;21.20;4.97;;;10.10;99.90;;;;;;929236;152;27412;-78
2022/10/04 02:10:54;;;;;;;13.80;4.23;;;10.10;99.90;;;;;;929034;153;27308;-78
2022/10/04 02:13:20;;;;;;;23.70;5.37;;;10.10;99.90;;;;;;929379;153;27882;-78
2022/10/04 02:15:47;;;;;;;38.20;6.13;;;10.10;99.90;;;;;;929411;151;27338;-78
2022/10/04 02:18:14;;;;;;;28.03;5.70;;;10.10;99.90;;;;;;929493;153;27387;-78
2022/10/04 02:20:40;;;;;;;34.67;6.13;;;10.10;99.90;;;;;;928928;152;27846;-78
2022/10/04 02:23:07;;;;;;;14.33;5.07;;;10.10;99.90;;;;;;929155;151;27319;-78
2022/10/04 02:25:33;;;;;;;22.23;6.17;;;10.10;99.90;;;;;;929607;151;27303;-78
2022/10/04 02:28:00;;;;;;;21.33;5.00;;;10.20;99.90;;;;;;929127;152;27316;-78
2022/10/04 02:30:27;;;;;;;16.47;4.40;;;10.20;99.90;;;;;;928828;152;27370;-78
2022/10/04 02:32:59;;;;;;;15.30;4.93;;;10.20;99.90;;;;;;929433;153;27323;-78
2022/10/04 02:35:44;;;;;;;22.57;4.63;;;10.20;99.90;;;;;;928843;151;27428;-79
2022/10/04 02:38:19;;;;;;;12.70;4.53;;;10.20;99.90;;;;;;929491;152;27400;-77
2022/10/04 02:41:03;;;;;;;9.90;3.83;;;10.20;99.90;;;;;;928620;151;27801;-78
2022/10/04 02:43:30;;;;;;;15.07;4.27;;;10.20;99.90;;;;;;932156;150;27357;-78
2022/10/04 02:46:06;;;;;;;11.07;4.07;;;10.20;99.90;;;;;;932381;150;27390;-78
2022/10/04 02:48:44;;;;;;;17.50;4.40;;;10.20;99.90;;;;;;937666;151;27852;-78
2022/10/04 02:51:24;;;;;;;7.10;3.57;;;10.20;99.90;;;;;;937295;152;27320;-77
2022/10/04 02:53:52;;;;;;;9.23;4.13;;;10.30;99.90;;;;;;937555;152;27493;-77
2022/10/04 02:56:18;;;;;;;21.40;5.53;;;10.30;99.90;;;;;;937130;150;27418;-77
2022/10/04 02:58:45;;;;;;;15.63;4.83;;;10.30;99.90;;;;;;937778;149;27289;-77
2022/10/04 03:01:12;;;;;;;34.27;5.20;;;10.30;99.90;;;;;;937283;149;27619;-77
2022/10/04 03:03:38;;;;;;;39.47;7.13;;;10.30;99.90;;;;;;937363;152;27305;-77
2022/10/04 03:06:08;;;;;;;19.70;5.53;;;10.30;99.90;;;;;;937803;149;27466;-77
2022/10/04 03:08:34;;;;;;;30.30;6.67;;;10.40;99.90;;;;;;937412;149;27352;-77
2022/10/04 03:11:01;;;;;;;26.70;6.90;;;10.40;99.90;;;;;;935029;152;27395;-77
2022/10/04 03:13:27;;;;;;;21.17;6.20;;;10.40;99.90;;;;;;936853;149;27441;-77
2022/10/04 03:15:54;;;;;;;30.33;6.33;;;10.50;99.90;;;;;;937788;150;27408;-77
2022/10/04 03:18:20;;;;;;;65.77;10.13;;;10.50;99.90;;;;;;937698;150;27842;-77
2022/10/04 03:20:47;;;;;;;39.33;7.80;;;10.50;99.90;;;;;;937540;150;27334;-77
2022/10/04 03:23:14;;;;;;;52.27;8.47;;;10.50;99.90;;;;;;937817;151;27395;-77
2022/10/04 03:25:58;;;;;;;13.17;5.27;;;10.50;99.90;;;;;;937579;150;27293;-77
2022/10/04 03:28:25;;;;;;;31.73;6.60;;;10.60;99.90;;;;;;937068;150;27364;-77
2022/10/04 03:30:51;;;;;;;30.13;6.23;;;10.60;99.90;;;;;;937019;149;27431;-77
2022/10/04 03:33:21;;;;;;;28.37;7.23;;;10.60;99.90;;;;;;937316;151;27443;-77
2022/10/04 03:35:47;;;;;;;54.17;7.80;;;10.60;99.90;;;;;;936547;149;27456;-77
2022/10/04 03:38:14;;;;;;;36.20;7.70;;;10.60;99.90;;;;;;937178;150;27874;-77
2022/10/04 03:40:40;;;;;;;42.33;8.23;;;10.60;99.90;;;;;;937996;149;27678;-77
2022/10/04 03:43:07;;;;;;;26.93;6.63;;;10.60;99.90;;;;;;936980;152;27358;-77
2022/10/04 03:45:34;;;;;;;23.80;6.77;;;10.60;99.90;;;;;;937298;149;27384;-77
2022/10/04 03:48:03;;;;;;;33.93;6.93;;;10.60;99.90;;;;;;937607;152;27363;-77
2022/10/04 03:50:31;;;;;;;18.87;5.97;;;10.60;99.90;;;;;;937763;149;27479;-77
2022/10/04 03:52:56;;;;;;;14.80;5.80;;;10.60;99.90;;;;;;937421;151;27283;-77
2022/10/04 03:55:32;;;;;;;14.20;5.80;;;10.60;99.90;;;;;;937869;150;27366;-77
2022/10/04 03:57:59;;;;;;;7.23;5.60;;;10.60;99.90;;;;;;938160;152;27892;-77
2022/10/04 04:00:25;;;;;;;17.73;5.40;;;10.60;99.90;;;;;;937604;150;27293;-77
2022/10/04 04:03:00;;;;;;;16.97;5.20;;;10.60;99.90;;;;;;937171;152;27288;-77
2022/10/04 04:05:30;;;;;;;7.40;4.47;;;10.60;99.90;;;;;;937174;150;27341;-76
2022/10/04 04:08:23;;;;;;;6.40;4.40;;;10.60;99.90;;;;;;937589;151;27376;-77
2022/10/04 04:10:50;;;;;;;12.20;4.77;;;10.60;99.90;;;;;;937288;150;27790;-77
2022/10/04 04:13:55;;;;;;;10.77;6.00;;;10.60;99.90;;;;;;938230;151;27302;-77
2022/10/04 04:16:21;;;;;;;37.63;6.60;;;10.50;99.90;;;;;;937635;150;27359;-77
2022/10/04 04:18:47;;;;;;;15.50;5.67;;;10.50;99.90;;;;;;937974;150;27311;-77
2022/10/04 04:21:17;;;;;;;12.53;5.10;;;10.50;99.90;;;;;;938053;149;27408;-77
2022/10/04 04:23:43;;;;;;;47.40;6.97;;;10.50;99.90;;;;;;937952;150;27324;-77
2022/10/04 04:26:30;;;;;;;12.63;4.60;;;10.50;99.90;;;;;;937812;150;27360;-77
2022/10/04 04:29:06;;;;;;;40.33;5.67;;;10.50;99.90;;;;;;937059;150;27367;-77
2022/10/04 04:31:51;;;;;;;32.93;6.00;;;10.50;99.90;;;;;;923036;152;27411;-77
2022/10/04 04:34:21;;;;;;;19.03;5.53;;;10.50;99.90;;;;;;937271;150;27277;-77
2022/10/04 04:36:47;;;;;;;35.07;7.50;;;10.50;99.90;;;;;;937582;152;27321;-77
2022/10/04 04:42:01;;;;;;;27.60;6.17;;;10.50;99.90;;;;;;937775;152;27386;-78
2022/10/04 04:44:28;;;;;;;18.50;5.90;;;10.50;99.90;;;;;;936820;149;28624;-77
2022/10/04 04:46:59;;;;;;;7.30;4.60;;;10.50;99.90;;;;;;938155;152;27282;-79
2022/10/04 04:49:22;;;;;;;14.53;5.03;;;10.50;99.90;;;;;;936738;151;27790;-79
2022/10/04 04:51:49;;;;;;;26.17;5.67;;;10.50;99.90;;;;;;937877;152;27334;-79
2022/10/04 04:54:14;;;;;;;7.37;4.60;;;10.50;99.90;;;;;;937578;150;27444;-79
2022/10/04 04:56:41;;;;;;;6.73;5.23;;;10.50;99.90;;;;;;937642;152;27270;-79
2022/10/04 04:59:07;;;;;;;9.43;5.27;;;10.50;99.90;;;;;;937634;149;27302;-79
2022/10/04 05:01:46;;;;;;;10.67;5.40;;;10.50;99.90;;;;;;937161;150;27319;-79
2022/10/04 05:04:12;;;;;;;8.97;6.17;;;10.50;99.90;;;;;;937662;150;27803;-78
2022/10/04 05:06:39;;;;;;;10.07;5.57;;;10.50;99.90;;;;;;937343;150;27367;-78
2022/10/04 05:09:05;;;;;;;9.00;5.23;;;10.50;99.90;;;;;;937248;152;27374;-78
2022/10/04 05:11:32;;;;;;;9.80;5.37;;;10.50;99.90;;;;;;938531;149;27371;-78
2022/10/04 05:13:59;;;;;;;8.33;5.27;;;10.50;99.90;;;;;;937684;150;27311;-78
2022/10/04 05:16:25;;;;;;;16.23;5.83;;;10.50;99.90;;;;;;937216;150;27356;-78
2022/10/04 05:19:00;;;;;;;25.03;5.90;;;10.60;99.90;;;;;;937249;152;27364;-78
2022/10/04 05:21:27;;;;;;;15.03;6.43;;;10.50;99.90;;;;;;937774;149;27439;-78
2022/10/04 05:23:55;;;;;;;7.63;5.97;;;10.60;99.90;;;;;;937967;152;27310;-78
2022/10/04 05:26:20;;;;;;;7.27;5.93;;;10.50;99.90;;;;;;937651;149;27336;-78
2022/10/04 05:28:47;;;;;;;7.50;6.50;;;10.60;99.90;;;;;;936214;150;27326;-78
2022/10/04 05:31:31;;;;;;;8.53;7.37;;;10.50;99.90;;;;;;937576;149;27423;-78
2022/10/04 05:33:58;;;;;;;7.37;6.37;;;10.50;99.90;;;;;;936874;150;27347;-78
2022/10/04 05:36:33;;;;;;;13.67;6.47;;;10.50;99.90;;;;;;937643;149;27316;-78
2022/10/04 05:39:09;;;;;;;6.17;5.57;;;10.50;99.90;;;;;;937261;152;27799;-78
2022/10/04 05:41:39;;;;;;;6.00;5.07;;;10.50;99.90;;;;;;936588;150;27380;-78
2022/10/04 05:44:25;;;;;;;6.03;5.27;;;10.50;99.90;;;;;;936933;150;27369;-78
2022/10/04 05:46:50;;;;;;;5.60;5.10;;;10.50;99.90;;;;;;946937;151;28195;-78
2022/10/04 05:49:17;;;;;;;8.57;5.83;;;10.50;99.90;;;;;;948459;151;27304;-78
2022/10/04 05:51:52;;;;;;;6.00;5.47;;;10.50;99.90;;;;;;948251;148;27335;-78
2022/10/04 05:54:21;;;;;;;5.77;5.17;;;10.50;99.90;;;;;;947852;148;27846;-78
2022/10/04 05:57:14;;;;;;;6.30;5.10;;;10.40;99.90;;;;;;948348;149;27374;-78
2022/10/04 05:59:39;;;;;;;7.33;6.50;;;10.50;99.90;;;;;;948098;148;27343;-78
2022/10/04 06:02:06;;;;;;;6.27;5.67;;;10.50;99.90;;;;;;947411;148;27388;-78
2022/10/04 06:04:57;;;;;;;6.27;5.20;;;10.50;99.90;;;;;;947062;148;27366;-78
2022/10/04 06:07:23;;;;;;;5.90;5.07;;;10.50;99.90;;;;;;948488;148;27411;-78
2022/10/04 06:09:53;;;;;;;6.67;4.93;;;10.50;99.90;;;;;;943273;151;27282;-78
2022/10/04 06:12:41;;;;;;;5.57;5.07;;;10.60;99.90;;;;;;947770;151;27341;-80
2022/10/04 06:15:07;;;;;;;5.27;4.77;;;10.60;99.90;;;;;;948779;148;27449;-80
2022/10/04 06:17:43;;;;;;;5.77;4.87;;;10.70;99.90;;;;;;946850;148;27370;-80
2022/10/04 06:20:12;;;;;;;6.57;4.57;;;10.70;99.90;;;;;;946706;151;27376;-80
2022/10/04 06:22:44;;;;;;;4.87;4.47;;;10.70;99.90;;;;;;946636;151;27318;-80
2022/10/04 06:25:17;;;;;;;5.07;4.30;;;10.80;99.90;;;;;;947631;148;27792;-80
2022/10/04 06:27:49;;;;;;;6.43;5.40;;;10.80;99.90;;;;;;946790;150;28483;-80
2022/10/04 06:30:16;;;;;;;5.30;4.80;;;10.90;99.90;;;;;;929954;151;27425;-80
2022/10/04 06:33:07;;;;;;;7.53;5.43;;;11.00;99.90;;;;;;947904;148;27409;-79
2022/10/04 06:35:54;;;;;;;8.13;5.03;;;11.00;99.90;;;;;;947711;148;28089;-80
2022/10/04 06:38:39;;;;;;;6.70;5.00;;;11.10;99.90;;;;;;948185;151;27319;-80
2022/10/04 06:41:18;;;;;;;5.47;4.97;;;11.20;99.90;;;;;;945574;151;27328;-80
2022/10/04 06:43:56;;;;;;;5.77;5.17;;;11.30;99.90;;;;;;947145;148;27489;-79
2022/10/04 06:46:29;;;;;;;5.80;4.33;;;11.40;99.90;;;;;;941342;148;27395;-80
2022/10/04 06:49:16;;;;;;;5.40;4.80;;;11.40;99.90;;;;;;920997;152;27283;-80
2022/10/04 06:51:55;;;;;;;7.30;4.47;;;11.50;99.90;;;;;;937481;149;27354;-80
2022/10/04 06:54:30;;;;;;;5.63;4.90;;;11.60;99.90;;;;;;913252;150;27460;-80
2022/10/04 06:57:24;;;;;;;5.80;4.60;;;11.70;99.90;;;;;;937487;149;27398;-80
2022/10/04 06:59:56;;;;;;;5.83;4.83;;;11.80;99.90;;;;;;936354;150;27312;-80
2022/10/04 07:02:22;;;;;;;6.20;5.50;;;11.90;99.90;;;;;;937347;148;27321;-80
2022/10/04 07:04:49;;;;;;;5.53;5.03;;;12.00;99.90;;;;;;936229;152;27687;-80
2022/10/04 07:07:26;;;;;;;6.47;5.43;;;12.10;99.90;;;;;;936868;152;27308;-80
2022/10/04 07:09:57;;;;;;;5.50;5.00;;;12.20;99.90;;;;;;937612;152;27382;-80
2022/10/04 07:12:23;;;;;;;9.13;5.20;;;12.30;99.90;;;;;;910260;152;27330;-80
2022/10/04 07:14:50;;;;;;;6.60;5.40;;;12.40;99.90;;;;;;937653;150;27370;-79
2022/10/04 07:17:35;;;;;;;10.40;5.50;;;12.50;99.90;;;;;;936551;152;27298;-80
2022/10/04 07:20:01;;;;;;;5.30;4.77;;;12.60;99.90;;;;;;923791;152;28320;-80
2022/10/04 07:22:32;;;;;;;7.07;5.17;;;12.60;99.90;;;;;;920386;152;27338;-80
2022/10/04 07:25:07;;;;;;;5.83;5.33;;;12.70;99.90;;;;;;935087;150;27387;-80
2022/10/04 07:27:36;;;;;;;6.80;5.70;;;12.70;99.90;;;;;;935091;151;27465;-80
2022/10/04 07:30:05;;;;;;;8.03;5.20;;;12.80;99.90;;;;;;933494;151;27364;-80
2022/10/04 07:32:35;;;;;;;4.73;4.33;;;12.90;99.90;;;;;;933193;150;27356;-79
2022/10/04 07:35:13;;;;;;;5.17;4.70;;;12.90;99.90;;;;;;936857;150;27456;-79
2022/10/04 07:37:36;;;;;;;6.20;5.07;;;13.00;99.90;;;;;;935876;150;27407;-79
2022/10/04 07:40:09;;;;;;;5.37;4.83;;;13.00;99.90;;;;;;932888;150;27395;-80
2022/10/04 07:42:45;;;;;;;4.70;4.30;;;13.10;99.90;;;;;;933494;151;27461;-80
2022/10/04 07:45:23;;;;;;;4.90;4.27;;;13.20;99.90;;;;;;934418;151;27476;-79
2022/10/04 07:47:50;;;;;;;5.83;4.30;;;13.30;99.90;;;;;;933290;150;28125;-80
2022/10/04 07:50:22;;;;;;;4.22;3.83;;;13.60;99.90;;;;;;932117;151;27464;-80
2022/10/04 07:53:00;;;;;;;4.12;3.65;;;13.90;99.90;;;;;;915097;152;28105;-80
2022/10/04 07:55:45;;;;;;;3.90;3.50;;;14.40;99.90;;;;;;923309;152;27292;-80
2022/10/04 07:58:17;;;;;;;3.35;3.05;;;15.00;99.90;;;;;;926396;153;27402;-80
2022/10/04 08:00:49;;;;;;;4.45;3.50;;;15.60;99.90;;;;;;926750;152;27430;-80
2022/10/04 08:03:38;;;;;;;3.52;3.22;;;16.20;99.90;;;;;;931678;152;27463;-80
2022/10/04 08:06:09;;;;;;;3.87;3.15;;;16.80;99.90;;;;;;933766;152;27435;-79
2022/10/04 08:09:01;;;;;;;3.98;3.40;;;17.50;99.90;;;;;;933473;152;27324;-80
2022/10/04 08:11:39;;;;;;;5.75;3.15;;;18.10;99.90;;;;;;928907;152;27415;-79
2022/10/04 08:14:18;;;;;;;4.35;3.30;;;18.70;99.90;;;;;;928377;153;27429;-80
2022/10/04 08:17:22;;;;;;;3.75;2.85;;;19.30;99.00;;;;;;929257;153;27386;-79
2022/10/04 08:20:07;;;;;;;3.22;2.70;;;19.80;97.30;;;;;;928722;153;27336;-80
2022/10/04 08:22:33;;;;;;;3.10;2.90;;;20.40;95.70;;;;;;928476;151;27398;-80
2022/10/04 08:25:09;;;;;;;2.70;2.47;;;20.90;94.10;;;;;;902982;153;27396;-80
2022/10/04 08:30:47;;;;;;;2.67;2.47;;;21.80;91.60;;;;;;928925;153;27387;-79
2022/10/04 08:33:38;;;;;;;3.72;3.33;;;22.30;90.30;;;;;;927005;151;28295;-79
2022/10/04 08:36:05;;;;;;;5.70;2.35;;;22.70;87.10;;;;;;929005;151;27591;-79
2022/10/04 08:38:41;;;;;;;3.15;2.67;;;23.00;83.80;;;;;;928607;153;27344;-79
2022/10/04 08:41:07;;;;;;;5.17;3.12;;;23.30;81.10;;;;;;928669;153;27465;-79
2022/10/04 08:43:41;;;;;;;3.62;2.65;;;23.40;79.50;;;;;;929081;152;27352;-79
2022/10/04 08:46:30;;;;;;;3.17;2.85;;;23.60;78.10;;;;;;909521;151;27413;-79
2022/10/04 08:49:25;;;;;;;4.17;2.60;;;23.80;76.30;;;;;;929112;153;27440;-79
2022/10/04 08:51:56;;;;;;;3.80;2.92;;;24.00;75.60;;;;;;928583;153;27364;-78
2022/10/04 08:54:39;;;;;;;3.87;2.50;;;24.20;74.80;;;;;;928943;152;27484;-78
2022/10/04 08:57:14;;;;;;;3.45;2.50;;;24.30;73.80;;;;;;928060;153;27451;-78
2022/10/04 08:59:49;;;;;;;3.98;2.30;;;24.40;72.90;;;;;;928068;153;27363;-78
2022/10/04 09:02:34;;;;;;;2.95;2.33;;;24.60;72.70;;;;;;928243;153;27396;-78
2022/10/04 09:05:31;;;;;;;3.77;2.40;;;24.80;72.90;;;;;;923697;153;27351;-78
2022/10/04 09:08:16;;;;;;;3.77;2.17;;;25.00;72.40;;;;;;929190;151;27903;-78
2022/10/04 09:11:03;;;;;;;1.98;1.82;;;25.20;71.30;;;;;;928432;151;27327;-78
2022/10/04 09:13:33;;;;;;;2.55;2.35;;;25.50;70.60;;;;;;929108;151;27313;-78
2022/10/04 09:16:05;;;;;;;2.50;2.30;;;25.60;69.20;;;;;;928353;153;27457;-78
2022/10/04 09:18:53;;;;;;;2.72;1.80;;;25.80;68.40;;;;;;926976;153;27311;-78
2022/10/04 09:21:38;;;;;;;2.02;1.82;;;25.90;67.50;;;;;;928809;153;27324;-78
2022/10/04 09:24:11;;;;;;;1.95;1.72;;;26.00;67.00;;;;;;928381;153;27752;-78
2022/10/04 09:26:55;;;;;;;4.03;2.00;;;26.10;66.60;;;;;;928684;153;27317;-78
2022/10/04 09:29:31;;;;;;;3.52;1.60;;;26.10;65.70;;;;;;929232;152;27375;-78
2022/10/04 09:32:00;;;;;;;2.45;1.87;;;26.10;64.80;;;;;;928292;153;27372;-78
2022/10/04 09:34:30;;;;;;;3.00;1.67;;;26.10;64.20;;;;;;928124;152;27331;-78
2022/10/04 09:37:09;;;;;;;6.40;1.67;;;25.90;63.90;;;;;;925427;153;27324;-78
2022/10/04 09:39:44;;;;;;;1.92;1.55;;;25.80;63.50;;;;;;929492;153;27303;-78
2022/10/04 09:42:16;;;;;;;2.83;1.90;;;25.70;63.30;;;;;;928984;153;27475;-78
2022/10/04 09:44:52;;;;;;;2.87;1.60;;;25.60;63.10;;;;;;928687;151;27473;-78
2022/10/04 09:47:36;;;;;;;2.35;1.67;;;25.50;63.60;;;;;;930084;151;27332;-78
2022/10/04 09:50:25;;;;;;;2.15;1.40;;;25.30;62.50;;;;;;936909;151;27315;-78
2022/10/04 09:52:48;;;;;;;4.50;1.85;;;25.20;62.40;;;;;;938629;150;27298;-79
2022/10/04 09:55:52;;;;;;;3.22;1.90;;;25.00;62.50;;;;;;937770;151;27402;-79
2022/10/04 09:58:45;;;;;;;3.20;1.47;;;24.90;62.60;;;;;;938322;151;27309;-78
2022/10/04 10:01:12;;;;;;;2.75;1.65;;;24.80;62.30;;;;;;931720;151;27308;-78
2022/10/04 10:03:53;;;;;;;2.60;2.05;;;24.60;62.10;;;;;;939956;151;27430;-78
2022/10/04 10:06:26;;;;;;;1.92;1.55;;;24.40;61.80;;;;;;937935;151;27389;-78
2022/10/04 10:09:14;;;;;;;2.02;1.37;;;24.30;61.70;;;;;;935928;151;27305;-78
2022/10/04 10:15:14;;;;;;;2.17;1.55;;;23.80;61.70;;;;;;938072;151;27403;-78
2022/10/04 10:17:42;;;;;;;1.87;1.50;;;23.50;62.10;;;;;;936298;151;27388;-78
2022/10/04 10:20:16;;;;;;;2.98;1.52;;;23.30;62.20;;;;;;937493;151;27342;-78
2022/10/04 10:23:01;;;;;;;2.15;1.67;;;23.10;62.50;;;;;;940224;151;27359;-78
2022/10/04 10:25:47;;;;;;;1.90;1.42;;;22.90;62.70;;;;;;926283;153;27276;-78
2022/10/04 10:28:30;;;;;;;2.20;1.80;;;22.80;62.80;;;;;;937643;151;28006;-78
2022/10/04 10:31:07;;;;;;;2.22;1.45;;;22.70;63.30;;;;;;936663;151;27279;-78
2022/10/04 10:33:33;;;;;;;5.28;1.47;;;22.60;63.60;;;;;;937187;151;27337;-78
2022/10/04 10:36:27;;;;;;;2.20;1.72;;;22.40;63.60;;;;;;938316;151;27321;-78
2022/10/04 10:39:12;;;;;;;1.90;1.47;;;22.40;63.80;;;;;;936830;151;27305;-79
2022/10/04 10:41:51;;;;;;;4.45;1.70;;;22.30;63.80;;;;;;938317;151;27298;-79
2022/10/04 10:44:29;;;;;;;2.47;1.50;;;22.20;63.80;;;;;;934427;151;27403;-78
2022/10/04 10:47:17;;;;;;;2.12;1.60;;;22.10;64.00;;;;;;938382;151;27300;-78
2022/10/04 10:49:43;;;;;;;2.20;1.45;;;22.00;64.10;;;;;;941126;149;27453;-78
2022/10/04 10:52:24;;;;;;;3.55;1.50;;;21.90;64.00;;;;;;942416;150;27377;-78
2022/10/04 10:55:22;;;;;;;3.17;2.00;;;21.80;64.10;;;;;;941738;149;27372;-78
2022/10/04 10:58:09;;;;;;;3.25;1.70;;;21.70;64.30;;;;;;942065;149;27364;-78
2022/10/04 11:01:06;;;;;;;1.30;1.20;;;21.60;64.50;;;;;;942589;150;27440;-78
2022/10/04 11:03:51;;;;;;;1.57;1.27;;;21.50;64.80;;;;;;941611;149;27375;-78
2022/10/04 11:06:40;;;;;;;2.02;1.50;;;21.40;64.70;;;;;;940064;150;27345;-78
2022/10/04 11:09:33;;;;;;;2.22;1.57;;;21.40;64.90;;;;;;930286;149;27345;-78
2022/10/04 11:12:04;;;;;;;2.40;1.52;;;21.40;65.20;;;;;;940757;150;27319;-78
2022/10/04 11:14:35;;;;;;;2.05;1.50;;;21.30;65.00;;;;;;942134;150;29091;-78
2022/10/04 11:17:24;;;;;;;2.02;1.60;;;21.30;64.00;;;;;;943053;150;27360;-78
2022/10/04 11:19:52;;;;;;;1.75;1.40;;;21.20;65.00;;;;;;943374;149;27379;-78
2022/10/04 11:22:58;;;;;;;1.92;1.80;;;21.20;65.30;;;;;;942084;150;27329;-78
2022/10/04 11:25:38;;;;;;;2.37;1.57;;;21.20;65.50;;;;;;942300;150;27355;-78
2022/10/04 11:28:23;;;;;;;1.30;1.20;;;21.20;65.80;;;;;;941924;149;27281;-79
2022/10/04 11:31:00;;;;;;;2.55;1.62;;;21.20;65.70;;;;;;942598;150;27352;-78
2022/10/04 11:33:39;;;;;;;2.05;1.70;;;21.20;65.80;;;;;;942414;150;27356;-78
2022/10/04 11:36:09;;;;;;;2.50;1.35;;;21.30;65.90;;;;;;889902;158;27397;-78
2022/10/04 11:38:47;;;;;;;2.22;1.57;;;21.30;66.00;;;;;;903607;150;27345;-78
2022/10/04 11:41:33;;;;;;;2.47;1.62;;;21.30;65.60;;;;;;943236;149;27301;-78
2022/10/04 11:44:14;;;;;;;2.60;2.00;;;21.40;65.70;;;;;;943368;149;27348;-78
2022/10/04 11:47:07;;;;;;;2.47;1.50;;;21.40;65.40;;;;;;943535;150;27381;-78
2022/10/04 11:49:55;;;;;;;1.92;1.50;;;21.40;65.30;;;;;;943923;149;27369;-78
2022/10/04 11:52:44;;;;;;;2.83;1.47;;;21.50;65.40;;;;;;943379;147;27277;-78
2022/10/04 11:55:44;;;;;;;3.75;1.72;;;21.50;65.10;;;;;;940990;149;27304;-78
2022/10/04 11:58:30;;;;;;;2.22;1.62;;;21.40;64.60;;;;;;943719;150;27337;-78
2022/10/04 12:01:07;;;;;;;2.75;1.62;;;21.30;64.30;;;;;;940411;149;27323;-78
2022/10/04 12:03:52;;;;;;;2.05;1.40;;;21.20;64.50;;;;;;942785;150;27438;-78
2022/10/04 12:06:52;;;;;;;1.85;1.57;;;21.10;64.60;;;;;;911457;150;27713;-78
2022/10/04 12:09:19;;;;;;;2.83;2.00;;;21.00;64.90;;;;;;943489;149;27401;-78
2022/10/04 12:14:45;;;;;;;1.92;1.65;;;20.90;65.40;;;;;;939048;149;27453;-78
2022/10/04 12:17:45;;;;;;;1.62;1.35;;;20.90;65.60;;;;;;942094;150;27426;-78
2022/10/04 12:20:40;;;;;;;3.15;1.57;;;20.90;65.70;;;;;;943259;150;27313;-78
2022/10/04 12:23:21;;;;;;;1.98;1.42;;;21.00;65.70;;;;;;943568;150;27432;-78
2022/10/04 12:26:09;;;;;;;3.98;1.62;;;21.00;65.70;;;;;;941166;149;27451;-78
2022/10/04 12:29:01;;;;;;;5.92;1.50;;;21.00;65.60;;;;;;923641;150;27314;-79
2022/10/04 12:31:33;;;;;;;1.95;1.60;;;21.00;65.60;;;;;;918378;150;27353;-78
2022/10/04 12:34:35;;;;;;;1.67;1.57;;;21.00;65.50;;;;;;942664;150;28302;-78
2022/10/04 12:37:30;;;;;;;1.75;1.60;;;21.10;65.50;;;;;;943718;150;27353;-79
2022/10/04 12:40:09;;;;;;;2.75;1.50;;;21.10;65.60;;;;;;943062;150;27380;-78
2022/10/04 12:42:51;;;;;;;1.40;1.30;;;21.10;65.50;;;;;;942648;149;27277;-78
2022/10/04 12:45:39;;;;;;;1.87;1.77;;;21.10;65.30;;;;;;941838;149;27393;-78
2022/10/04 12:48:08;;;;;;;4.05;1.90;;;21.10;65.10;;;;;;942101;150;27405;-78
2022/10/04 12:50:59;;;;;;;1.62;1.50;;;21.10;65.30;;;;;;931970;150;27437;-78
2022/10/04 12:53:33;;;;;;;2.75;1.67;;;21.10;65.10;;;;;;928812;153;27352;-78
2022/10/04 12:56:20;;;;;;;4.95;1.70;;;21.00;65.20;;;;;;928908;153;27362;-78
2022/10/04 12:59:11;;;;;;;1.47;1.37;;;21.10;65.10;;;;;;928334;153;27979;-78
2022/10/04 13:01:56;;;;;;;1.95;1.60;;;21.10;65.00;;;;;;929123;151;27362;-78
2022/10/04 13:04:35;;;;;;;1.57;1.17;;;21.10;65.00;;;;;;928868;153;27831;-78
2022/10/04 13:07:07;;;;;;;1.40;1.30;;;21.10;65.10;;;;;;928635;153;27428;-78
2022/10/04 13:09:36;;;;;;;2.30;1.42;;;21.10;65.10;;;;;;928629;153;27348;-79
2022/10/04 13:12:40;;;;;;;1.82;1.40;;;21.10;65.00;;;;;;892233;153;27450;-79
2022/10/04 13:15:12;;;;;;;2.10;1.80;;;21.10;64.60;;;;;;928840;153;27389;-79
2022/10/04 13:17:38;;;;;;;1.77;1.67;;;21.10;64.80;;;;;;928963;153;28666;-79
2022/10/04 13:20:32;;;;;;;2.02;1.70;;;21.10;64.90;;;;;;926257;151;27361;-79
2022/10/04 13:22:59;;;;;;;1.10;1.10;;;21.10;64.80;;;;;;929087;150;27333;-79
2022/10/04 13:25:35;;;;;;;1.92;1.80;;;21.10;64.80;;;;;;927404;151;27303;-78
2022/10/04 13:28:01;;;;;;;1.42;1.32;;;21.10;64.80;;;;;;928995;153;27431;-78
2022/10/04 13:30:46;;;;;;;1.45;1.27;;;21.10;64.70;;;;;;915222;151;27344;-78
2022/10/04 13:33:40;;;;;;;1.82;1.30;;;21.10;64.60;;;;;;926723;151;27386;-78
2022/10/04 13:36:19;;;;;;;1.87;1.40;;;21.10;64.50;;;;;;927719;152;27387;-78
2022/10/04 13:39:22;;;;;;;1.80;1.25;;;21.10;64.40;;;;;;926880;151;27280;-78
2022/10/04 13:42:01;;;;;;;2.22;1.50;;;21.10;64.40;;;;;;927178;151;27474;-78